createdAt,value
2019-05-19T00:00:30.110Z,30.67
2019-05-19T00:02:58.840Z,26.80
2019-05-19T00:05:27.772Z,29.50
2019-05-19T00:07:56.480Z,26.33
2019-05-19T00:10:25.189Z,31.30
2019-05-19T00:12:53.828Z,28.87
2019-05-19T00:15:22.523Z,28.70
2019-05-19T00:17:51.178Z,34.20
2019-05-19T00:20:19.872Z,25.40
2019-05-19T00:22:48.594Z,30.13
2019-05-19T00:25:17.312Z,30.57
2019-05-19T00:27:45.999Z,24.47
2019-05-19T00:30:15.182Z,22.43
2019-05-19T00:32:43.861Z,29.50
2019-05-19T00:35:12.592Z,24.60
2019-05-19T00:37:41.325Z,26.73
2019-05-19T00:40:10.527Z,24.80
2019-05-19T00:42:39.267Z,21.30
2019-05-19T00:45:08.918Z,23.70
2019-05-19T00:47:37.637Z,25.37
2019-05-19T00:50:07.480Z,24.73
2019-05-19T00:52:38.857Z,23.63
2019-05-19T00:55:07.774Z,22.43
2019-05-19T00:57:38.487Z,22.40
2019-05-19T01:00:08.754Z,22.10
2019-05-19T01:02:37.512Z,24.13
2019-05-19T01:05:09.270Z,19.70
2019-05-19T01:07:38.126Z,25.60
2019-05-19T01:10:09.261Z,21.10
2019-05-19T01:12:38.303Z,20.93
2019-05-19T01:15:08.148Z,24.67
2019-05-19T01:17:36.851Z,24.10
2019-05-19T01:20:09.576Z,25.03
2019-05-19T01:22:38.362Z,24.30
2019-05-19T01:25:08.417Z,20.80
2019-05-19T01:27:37.154Z,20.07
2019-05-19T01:30:10.286Z,19.27
2019-05-19T01:32:39.224Z,20.43
2019-05-19T01:35:08.215Z,18.30
2019-05-19T01:37:36.927Z,20.63
2019-05-19T01:40:09.365Z,23.17
2019-05-19T01:42:38.450Z,22.03
2019-05-19T01:45:09.661Z,22.70
2019-05-19T01:47:38.440Z,21.70
2019-05-19T01:50:17.531Z,22.27
2019-05-19T01:52:38.532Z,25.47
2019-05-19T01:55:08.032Z,26.40
2019-05-19T01:57:36.785Z,25.23
2019-05-19T02:00:10.418Z,26.27
2019-05-19T02:02:39.127Z,24.70
2019-05-19T02:05:08.995Z,20.07
2019-05-19T02:07:37.997Z,25.43
2019-05-19T02:10:09.701Z,23.27
2019-05-19T02:12:38.487Z,18.63
2019-05-19T02:15:08.463Z,24.73
2019-05-19T02:17:37.105Z,31.90
2019-05-19T02:20:33.240Z,21.53
2019-05-19T02:22:59.801Z,25.60
2019-05-19T02:25:28.578Z,26.23
2019-05-19T02:27:57.239Z,26.37
2019-05-19T02:30:26.108Z,23.03
2019-05-19T02:32:55.148Z,21.37
2019-05-19T02:35:23.957Z,19.67
2019-05-19T02:37:52.664Z,23.60
2019-05-19T02:40:21.480Z,26.97
2019-05-19T02:42:52.620Z,22.00
2019-05-19T02:45:21.372Z,23.30
2019-05-19T02:47:52.454Z,19.53
2019-05-19T02:50:21.608Z,24.00
2019-05-19T02:52:52.168Z,19.30
2019-05-19T02:55:21.146Z,23.23
2019-05-19T02:57:51.882Z,20.83
2019-05-19T03:00:23.529Z,24.90
2019-05-19T03:02:52.129Z,24.53
2019-05-19T03:05:20.859Z,20.13
2019-05-19T03:07:49.658Z,21.60
2019-05-19T03:10:18.387Z,22.87
2019-05-19T03:12:47.406Z,23.57
2019-05-19T03:15:16.455Z,22.20
2019-05-19T03:17:45.144Z,21.20
2019-05-19T03:20:13.855Z,21.07
2019-05-19T03:22:42.669Z,19.00
2019-05-19T03:25:11.711Z,21.73
2019-05-19T03:27:40.508Z,25.50
2019-05-19T03:30:27.925Z,24.20
2019-05-19T03:33:01.308Z,20.60
2019-05-19T03:35:29.994Z,24.20
2019-05-19T03:37:58.797Z,25.83
2019-05-19T03:40:27.530Z,25.47
2019-05-19T03:42:56.196Z,19.03
2019-05-19T03:45:24.953Z,23.30
2019-05-19T03:47:53.683Z,27.30
2019-05-19T03:50:22.393Z,20.43
2019-05-19T03:52:51.110Z,25.87
2019-05-19T03:55:19.763Z,21.27
2019-05-19T03:57:48.459Z,25.27
2019-05-19T04:00:17.523Z,22.33
2019-05-19T04:02:46.185Z,20.50
2019-05-19T04:05:14.936Z,21.93
2019-05-19T04:07:43.595Z,18.70
2019-05-19T04:10:12.703Z,21.37
2019-05-19T04:12:41.405Z,25.40
2019-05-19T04:15:10.328Z,21.00
2019-05-19T04:17:39.035Z,20.50
2019-05-19T04:20:08.364Z,18.43
2019-05-19T04:22:37.282Z,19.60
2019-05-19T04:25:07.398Z,19.47
2019-05-19T04:27:38.755Z,21.73
2019-05-19T04:30:08.801Z,17.43
2019-05-19T04:32:37.576Z,17.77
2019-05-19T04:35:09.473Z,19.10
2019-05-19T04:37:38.147Z,24.00
2019-05-19T04:40:07.103Z,20.10
2019-05-19T04:42:35.746Z,25.40
2019-05-19T04:45:05.037Z,19.70
2019-05-19T04:47:35.114Z,19.37
2019-05-19T04:50:05.086Z,17.17
2019-05-19T04:52:34.292Z,19.17
2019-05-19T04:55:03.135Z,21.03
2019-05-19T04:57:31.799Z,19.60
2019-05-19T05:00:00.742Z,19.23
2019-05-19T05:02:29.365Z,18.27
2019-05-19T05:04:58.018Z,18.20
2019-05-19T05:07:26.816Z,15.20
2019-05-19T05:09:55.451Z,17.73
2019-05-19T05:12:24.155Z,16.63
2019-05-19T05:14:52.864Z,15.83
2019-05-19T05:17:21.583Z,16.43
2019-05-19T05:19:50.287Z,20.10
2019-05-19T05:22:22.232Z,17.40
2019-05-19T05:24:49.761Z,19.10
2019-05-19T05:27:18.387Z,17.83
2019-05-19T05:29:47.083Z,21.97
2019-05-19T05:32:15.740Z,22.27
2019-05-19T05:34:44.823Z,16.00
2019-05-19T05:37:13.772Z,19.77
2019-05-19T05:39:42.467Z,19.90
2019-05-19T05:42:11.186Z,19.57
2019-05-19T05:44:39.845Z,19.97
2019-05-19T05:47:08.612Z,17.80
2019-05-19T05:49:37.331Z,16.53
2019-05-19T05:52:08.194Z,16.37
2019-05-19T05:54:36.923Z,20.87
2019-05-19T05:57:05.738Z,16.17
2019-05-19T05:59:34.402Z,16.90
2019-05-19T06:02:03.164Z,16.17
2019-05-19T06:04:32.091Z,15.63
2019-05-19T06:07:00.821Z,15.53
2019-05-19T06:09:29.557Z,16.40
2019-05-19T06:11:58.261Z,19.33
2019-05-19T06:14:27.102Z,15.07
2019-05-19T06:16:55.830Z,15.07
2019-05-19T06:19:24.647Z,24.30
2019-05-19T06:21:53.359Z,14.60
2019-05-19T06:24:22.065Z,17.23
2019-05-19T06:26:50.675Z,17.23
2019-05-19T06:29:19.490Z,18.60
2019-05-19T06:31:48.209Z,18.37
2019-05-19T06:34:17.222Z,20.20
2019-05-19T06:36:45.936Z,19.40
2019-05-19T06:39:14.864Z,20.13
2019-05-19T06:41:43.562Z,19.70
2019-05-19T06:44:12.253Z,15.73
2019-05-19T06:46:41.007Z,17.20
2019-05-19T06:49:09.829Z,15.17
2019-05-19T06:51:38.541Z,18.80
2019-05-19T06:54:07.661Z,17.80
2019-05-19T06:56:39.547Z,16.37
2019-05-19T06:59:08.363Z,16.67
2019-05-19T07:01:37.194Z,16.10
2019-05-19T07:04:06.130Z,19.67
2019-05-19T07:06:38.320Z,20.70
2019-05-19T07:09:07.855Z,16.97
2019-05-19T07:11:36.586Z,20.07
2019-05-19T07:14:06.864Z,19.57
2019-05-19T07:16:38.547Z,18.80
2019-05-19T07:19:07.384Z,17.90
2019-05-19T07:21:37.525Z,17.47
2019-05-19T07:24:09.223Z,15.03
2019-05-19T07:26:37.940Z,16.73
2019-05-19T07:29:06.673Z,14.90
2019-05-19T07:31:38.261Z,19.30
2019-05-19T07:34:06.930Z,15.57
2019-05-19T07:36:35.804Z,16.50
2019-05-19T07:39:06.384Z,23.00
2019-05-19T07:41:36.529Z,18.70
2019-05-19T07:44:06.655Z,15.70
2019-05-19T07:46:38.295Z,13.53
2019-05-19T07:49:06.993Z,14.70
2019-05-19T07:51:37.137Z,13.30
2019-05-19T07:54:07.266Z,15.10
2019-05-19T07:56:37.446Z,13.83
2019-05-19T07:59:08.834Z,17.00
2019-05-19T08:01:37.674Z,13.57
2019-05-19T08:04:06.325Z,15.70
2019-05-19T08:06:35.091Z,12.20
2019-05-19T08:09:05.472Z,14.47
2019-05-19T08:11:37.237Z,14.17
2019-05-19T08:14:07.631Z,14.37
2019-05-19T08:16:36.573Z,13.90
2019-05-19T08:19:06.781Z,12.10
2019-05-19T08:21:38.667Z,11.47
2019-05-19T08:24:07.685Z,8.37
2019-05-19T08:26:36.399Z,9.00
2019-05-19T08:29:06.655Z,11.93
2019-05-19T08:31:38.867Z,11.80
2019-05-19T08:34:07.968Z,10.50
2019-05-19T08:36:36.819Z,9.10
2019-05-19T08:39:06.593Z,7.20
2019-05-19T08:41:35.656Z,9.93
2019-05-19T08:44:06.535Z,9.20
2019-05-19T08:46:36.687Z,7.60
2019-05-19T08:49:08.085Z,9.53
2019-05-19T08:51:36.859Z,7.07
2019-05-19T08:54:15.144Z,9.73
2019-05-19T08:56:38.765Z,9.00
2019-05-19T08:59:07.414Z,8.13
2019-05-19T09:01:38.950Z,10.37
2019-05-19T09:04:07.684Z,7.80
2019-05-19T09:06:36.398Z,9.30
2019-05-19T09:09:06.445Z,7.20
2019-05-19T09:11:36.702Z,7.10
2019-05-19T09:14:08.092Z,10.67
2019-05-19T09:16:37.224Z,6.90
2019-05-19T09:19:07.381Z,8.20
2019-05-19T09:21:37.538Z,12.27
2019-05-19T09:24:09.137Z,8.20
2019-05-19T09:26:37.836Z,7.57
2019-05-19T09:29:07.540Z,7.43
2019-05-19T09:31:41.309Z,6.70
2019-05-19T09:34:09.519Z,8.03
2019-05-19T09:36:38.197Z,8.67
2019-05-19T09:39:07.552Z,11.50
2019-05-19T09:41:39.438Z,8.87
2019-05-19T09:44:08.162Z,6.73
2019-05-19T09:46:36.774Z,8.47
2019-05-19T09:49:26.398Z,6.87
2019-05-19T09:51:55.110Z,7.40
2019-05-19T09:54:23.825Z,7.63
2019-05-19T09:56:52.567Z,9.13
2019-05-19T09:59:21.249Z,6.80
2019-05-19T10:01:50.376Z,9.63
2019-05-19T10:04:19.051Z,7.00
2019-05-19T10:06:47.923Z,5.73
2019-05-19T10:09:20.374Z,6.17
2019-05-19T10:12:09.423Z,6.47
2019-05-19T10:14:38.230Z,8.27
2019-05-19T10:17:07.045Z,6.23
2019-05-19T10:19:35.756Z,5.97
2019-05-19T10:22:04.578Z,5.90
2019-05-19T10:24:33.294Z,7.30
2019-05-19T10:27:02.020Z,9.10
2019-05-19T10:29:30.728Z,6.57
2019-05-19T10:31:59.544Z,6.73
2019-05-19T10:34:28.318Z,6.23
2019-05-19T10:36:57.101Z,8.70
2019-05-19T10:39:25.717Z,5.50
2019-05-19T10:41:54.494Z,7.47
2019-05-19T10:44:23.218Z,7.23
2019-05-19T10:46:51.936Z,5.60
2019-05-19T10:49:20.968Z,6.63
2019-05-19T10:51:49.676Z,6.50
2019-05-19T10:54:18.448Z,5.70
2019-05-19T10:56:47.104Z,8.90
2019-05-19T10:59:16.120Z,8.63
2019-05-19T11:01:44.800Z,6.00
2019-05-19T11:04:13.469Z,5.67
2019-05-19T11:06:42.080Z,9.50
2019-05-19T11:09:11.105Z,7.03
2019-05-19T11:11:39.779Z,7.10
2019-05-19T11:14:08.439Z,9.93
2019-05-19T11:16:37.146Z,8.43
2019-05-19T11:19:05.863Z,8.20
2019-05-19T11:21:34.796Z,6.30
2019-05-19T11:24:04.011Z,16.37
2019-05-19T11:26:34.455Z,8.00
2019-05-19T11:29:03.235Z,6.73
2019-05-19T11:31:31.951Z,6.13
2019-05-19T11:34:00.675Z,5.70
2019-05-19T11:36:29.389Z,6.23
2019-05-19T11:38:58.054Z,7.17
2019-05-19T11:41:26.652Z,7.53
2019-05-19T11:43:55.243Z,6.43
2019-05-19T11:46:23.866Z,7.33
2019-05-19T11:48:52.685Z,7.77
2019-05-19T11:51:21.701Z,8.27
2019-05-19T11:53:50.520Z,6.33
2019-05-19T11:56:19.228Z,5.80
2019-05-19T11:58:47.894Z,7.07
2019-05-19T12:01:16.612Z,7.03
2019-05-19T12:03:45.632Z,6.93
2019-05-19T12:06:14.277Z,13.63
2019-05-19T12:08:42.945Z,9.50
2019-05-19T12:11:11.587Z,10.67
2019-05-19T12:13:40.265Z,30.13
2019-05-19T12:16:08.903Z,9.37
2019-05-19T12:18:37.573Z,6.50
2019-05-19T12:21:06.508Z,8.50
2019-05-19T12:23:36.609Z,7.90
2019-05-19T12:26:20.965Z,9.20
2019-05-19T12:28:37.094Z,6.40
2019-05-19T12:31:05.729Z,11.70
2019-05-19T12:33:34.395Z,8.40
2019-05-19T12:36:03.084Z,6.90
2019-05-19T12:38:31.776Z,7.50
2019-05-19T12:41:00.430Z,7.43
2019-05-19T12:43:29.098Z,10.07
2019-05-19T12:45:57.757Z,10.00
2019-05-19T12:48:26.417Z,7.47
2019-05-19T12:50:55.054Z,10.10
2019-05-19T12:53:23.701Z,9.53
2019-05-19T12:55:52.736Z,9.23
2019-05-19T12:58:21.400Z,9.63
2019-05-19T13:00:50.023Z,7.40
2019-05-19T13:03:18.604Z,7.87
2019-05-19T13:05:47.565Z,7.17
2019-05-19T13:08:16.210Z,7.40
2019-05-19T13:10:44.846Z,11.00
2019-05-19T13:13:13.524Z,12.00
2019-05-19T13:15:42.259Z,7.93
2019-05-19T13:18:10.897Z,7.70
2019-05-19T13:20:39.561Z,6.80
2019-05-19T13:23:08.203Z,7.60
2019-05-19T13:25:36.858Z,7.17
2019-05-19T13:28:08.497Z,7.07
2019-05-19T13:30:37.149Z,8.70
2019-05-19T13:33:05.808Z,7.60
2019-05-19T13:35:34.864Z,8.53
2019-05-19T13:38:03.986Z,8.73
2019-05-19T13:40:32.622Z,7.50
2019-05-19T13:43:01.190Z,8.90
2019-05-19T13:45:30.118Z,8.00
2019-05-19T13:47:58.690Z,8.63
2019-05-19T13:50:27.341Z,9.80
2019-05-19T13:52:56.266Z,7.23
2019-05-19T13:55:24.914Z,7.77
2019-05-19T13:57:53.635Z,8.13
2019-05-19T14:00:22.304Z,9.17
2019-05-19T14:02:50.951Z,8.30
2019-05-19T14:05:19.623Z,14.80
2019-05-19T14:07:48.267Z,7.90
2019-05-19T14:10:17.225Z,8.00
2019-05-19T14:12:45.910Z,10.07
2019-05-19T14:15:14.637Z,8.03
2019-05-19T14:17:43.296Z,11.37
2019-05-19T14:20:12.264Z,7.80
2019-05-19T14:22:41.194Z,7.30
2019-05-19T14:25:10.083Z,7.77
2019-05-19T14:27:38.722Z,8.47
2019-05-19T14:30:07.825Z,7.93
2019-05-19T14:32:36.436Z,9.60
2019-05-19T14:35:07.749Z,10.00
2019-05-19T14:37:36.499Z,11.53
2019-05-19T14:40:06.387Z,8.47
2019-05-19T14:42:56.179Z,7.93
2019-05-19T14:45:25.110Z,10.43
2019-05-19T14:47:53.931Z,9.50
2019-05-19T14:50:22.653Z,12.00
2019-05-19T14:52:51.361Z,11.43
2019-05-19T14:55:20.381Z,10.60
2019-05-19T14:57:49.323Z,12.53
2019-05-19T15:00:19.104Z,13.17
2019-05-19T15:02:47.862Z,19.70
2019-05-19T15:05:17.027Z,9.83
2019-05-19T15:07:45.754Z,12.30
2019-05-19T15:10:15.914Z,10.00
2019-05-19T15:12:44.555Z,12.93
2019-05-19T15:15:15.620Z,8.83
2019-05-19T15:17:44.747Z,9.27
2019-05-19T15:20:13.982Z,9.83
2019-05-19T15:22:42.792Z,8.67
2019-05-19T15:25:11.544Z,11.70
2019-05-19T15:27:40.315Z,9.40
2019-05-19T15:30:13.512Z,10.80
2019-05-19T15:32:39.590Z,10.00
2019-05-19T15:35:08.457Z,12.20
2019-05-19T15:37:37.448Z,10.17
2019-05-19T15:40:10.236Z,10.17
2019-05-19T15:42:38.886Z,10.30
2019-05-19T15:45:08.928Z,9.30
2019-05-19T15:47:37.696Z,18.87
2019-05-19T15:50:07.920Z,10.27
2019-05-19T15:52:36.553Z,9.97
2019-05-19T15:55:06.207Z,9.10
2019-05-19T15:57:36.684Z,9.90
2019-05-19T16:00:08.494Z,15.07
2019-05-19T16:02:37.268Z,9.60
2019-05-19T16:05:08.954Z,10.50
2019-05-19T16:07:37.629Z,10.90
2019-05-19T16:10:09.090Z,15.37
2019-05-19T16:12:38.134Z,11.37
2019-05-19T16:15:08.016Z,12.30
2019-05-19T16:17:36.683Z,11.27
2019-05-19T16:20:09.726Z,10.67
2019-05-19T16:22:38.567Z,12.87
2019-05-19T16:25:08.233Z,10.37
2019-05-19T16:27:36.880Z,10.60
2019-05-19T16:30:07.937Z,15.40
2019-05-19T16:32:36.604Z,23.70
2019-05-19T16:35:06.765Z,14.80
2019-05-19T16:37:38.418Z,14.47
2019-05-19T16:40:07.413Z,13.40
2019-05-19T16:42:38.818Z,21.83
2019-05-19T16:45:08.567Z,12.13
2019-05-19T16:47:37.231Z,13.80
2019-05-19T16:50:07.445Z,12.10
2019-05-19T16:52:39.372Z,14.23
2019-05-19T16:55:15.569Z,12.90
2019-05-19T16:57:44.311Z,13.00
2019-05-19T17:00:14.035Z,11.70
2019-05-19T17:02:42.894Z,17.23
2019-05-19T17:05:12.015Z,11.90
2019-05-19T17:07:40.690Z,14.30
2019-05-19T17:10:10.217Z,11.07
2019-05-19T17:12:38.953Z,14.03
2019-05-19T17:15:07.968Z,14.17
2019-05-19T17:17:36.934Z,17.73
2019-05-19T17:20:09.930Z,12.50
2019-05-19T17:22:38.709Z,15.67
2019-05-19T17:25:07.930Z,11.23
2019-05-19T17:27:37.018Z,8.17
2019-05-19T17:30:08.532Z,8.83
2019-05-19T17:32:37.267Z,9.10
2019-05-19T17:35:07.758Z,9.60
2019-05-19T17:37:36.572Z,9.17
2019-05-19T17:40:06.114Z,12.43
2019-05-19T17:42:37.307Z,10.50
2019-05-19T17:45:07.750Z,10.30
2019-05-19T17:47:36.667Z,9.30
2019-05-19T17:50:06.532Z,9.40
2019-05-19T17:52:36.888Z,12.50
2019-05-19T17:55:09.187Z,13.57
2019-05-19T17:57:38.677Z,10.97
2019-05-19T18:00:10.716Z,13.33
2019-05-19T18:02:39.527Z,20.03
2019-05-19T18:05:08.985Z,16.57
2019-05-19T18:07:37.649Z,18.93
2019-05-19T18:10:11.001Z,13.87
2019-05-19T18:12:40.359Z,12.80
2019-05-19T18:15:09.637Z,16.07
2019-05-19T18:17:38.365Z,15.47
2019-05-19T18:20:07.371Z,15.00
2019-05-19T18:22:37.546Z,17.77
2019-05-19T18:25:08.938Z,25.80
2019-05-19T18:27:37.662Z,22.40
2019-05-19T18:30:10.224Z,21.60
2019-05-19T18:32:39.116Z,15.27
2019-05-19T18:35:08.374Z,19.73
2019-05-19T18:37:36.998Z,18.03
2019-05-19T18:40:07.076Z,21.20
2019-05-19T18:42:35.890Z,20.33
2019-05-19T18:45:05.424Z,11.00
2019-05-19T18:47:34.550Z,9.30
2019-05-19T18:50:05.828Z,13.07
2019-05-19T18:52:34.541Z,16.30
2019-05-19T18:55:03.975Z,15.67
2019-05-19T18:57:32.574Z,15.33
2019-05-19T19:00:01.285Z,12.67
2019-05-19T19:02:30.321Z,19.20
2019-05-19T19:04:59.338Z,13.10
2019-05-19T19:07:45.778Z,9.20
2019-05-19T19:10:14.555Z,15.90
2019-05-19T19:12:43.289Z,30.83
2019-05-19T19:15:12.121Z,13.20
2019-05-19T19:17:40.854Z,37.20
2019-05-19T19:20:09.797Z,15.70
2019-05-19T19:22:38.920Z,21.80
2019-05-19T19:25:08.771Z,19.33
2019-05-19T19:27:37.510Z,19.80
2019-05-19T19:30:09.095Z,16.23
2019-05-19T19:32:37.872Z,15.10
2019-05-19T19:35:08.515Z,15.20
2019-05-19T19:37:37.792Z,19.20
2019-05-19T19:40:27.537Z,16.47
2019-05-19T19:42:56.350Z,16.30
2019-05-19T19:45:25.178Z,19.90
2019-05-19T19:47:53.865Z,18.30
2019-05-19T19:50:22.620Z,19.43
2019-05-19T19:52:51.453Z,24.20
2019-05-19T19:55:20.255Z,18.87
2019-05-19T19:57:49.381Z,18.00
2019-05-19T20:00:27.019Z,17.43
2019-05-19T20:02:55.737Z,26.23
2019-05-19T20:05:24.765Z,20.40
2019-05-19T20:07:54.007Z,19.83
2019-05-19T20:10:22.718Z,17.53
2019-05-19T20:12:51.436Z,20.10
2019-05-19T20:15:20.146Z,21.20
2019-05-19T20:17:48.855Z,20.80
2019-05-19T20:20:17.493Z,21.03
2019-05-19T20:22:46.080Z,23.10
2019-05-19T20:25:14.804Z,19.93
2019-05-19T20:27:43.632Z,23.00
2019-05-19T20:30:12.366Z,21.80
2019-05-19T20:32:40.984Z,20.90
2019-05-19T20:35:09.989Z,22.70
2019-05-19T20:37:38.729Z,21.70
2019-05-19T20:40:11.508Z,24.13
2019-05-19T20:42:40.360Z,24.10
2019-05-19T20:45:09.186Z,20.97
2019-05-19T20:47:38.014Z,22.53
2019-05-19T20:50:07.441Z,22.20
2019-05-19T20:52:38.949Z,22.60
2019-05-19T20:55:07.661Z,24.07
2019-05-19T20:57:36.485Z,25.40
2019-05-19T21:00:07.250Z,25.80
2019-05-19T21:02:37.429Z,24.93
2019-05-19T21:05:08.899Z,24.33
2019-05-19T21:07:37.614Z,23.47
2019-05-19T21:10:09.396Z,29.37
2019-05-19T21:12:38.106Z,22.73
2019-05-19T21:15:07.147Z,23.20
2019-05-19T21:17:35.895Z,23.07
2019-05-19T21:20:08.626Z,26.47
2019-05-19T21:22:37.733Z,24.83
2019-05-19T21:25:08.223Z,25.07
2019-05-19T21:27:37.057Z,27.97
2019-05-19T21:30:06.862Z,23.20
2019-05-19T21:32:38.294Z,27.03
2019-05-19T21:35:08.427Z,24.93
2019-05-19T21:37:37.137Z,28.57
2019-05-19T21:40:07.453Z,27.37
2019-05-19T21:42:38.812Z,31.87
2019-05-19T21:45:07.868Z,26.90
2019-05-19T21:47:36.666Z,33.10
2019-05-19T21:50:08.828Z,32.87
2019-05-19T21:52:37.491Z,27.30
2019-05-19T21:55:09.448Z,29.93
2019-05-19T21:57:38.217Z,28.00
2019-05-19T22:00:10.047Z,34.23
2019-05-19T22:02:39.212Z,30.63
2019-05-19T22:05:08.647Z,32.67
2019-05-19T22:07:45.246Z,28.33
2019-05-19T22:10:14.383Z,29.50
2019-05-19T22:12:43.008Z,31.90
2019-05-19T22:15:12.028Z,32.67
2019-05-19T22:17:40.746Z,29.17
2019-05-19T22:20:09.880Z,32.50
2019-05-19T22:22:39.361Z,30.23
2019-05-19T22:25:09.162Z,30.23
2019-05-19T22:27:38.553Z,31.57
2019-05-19T22:30:08.206Z,28.50
2019-05-19T22:32:37.058Z,35.27
2019-05-19T22:35:07.295Z,27.53
2019-05-19T22:37:37.469Z,30.77
2019-05-19T22:40:10.125Z,28.70
2019-05-19T22:42:38.784Z,29.47
2019-05-19T22:45:07.623Z,30.60
2019-05-19T22:47:39.489Z,31.77
2019-05-19T22:50:08.900Z,29.27
2019-05-19T22:52:37.619Z,30.57
2019-05-19T22:55:09.302Z,30.37
2019-05-19T22:57:38.113Z,31.00
2019-05-19T23:00:09.841Z,31.97
2019-05-19T23:02:38.643Z,30.10
2019-05-19T23:05:08.097Z,30.60
2019-05-19T23:07:36.944Z,35.20
2019-05-19T23:10:07.646Z,33.70
2019-05-19T23:12:39.445Z,36.27
2019-05-19T23:15:08.877Z,29.33
2019-05-19T23:17:37.588Z,36.60
2019-05-19T23:20:07.441Z,28.40
2019-05-19T23:22:37.611Z,28.03
2019-05-19T23:25:09.284Z,32.20
2019-05-19T23:27:38.046Z,39.23
2019-05-19T23:30:08.062Z,32.97
2019-05-19T23:32:37.174Z,34.57
2019-05-19T23:35:09.131Z,35.30
2019-05-19T23:37:37.781Z,33.93
2019-05-19T23:40:07.718Z,33.60
2019-05-19T23:42:36.592Z,34.20
2019-05-19T23:45:08.453Z,36.97
2019-05-19T23:47:37.191Z,36.80
2019-05-19T23:50:09.392Z,32.90
2019-05-19T23:52:38.102Z,41.60
2019-05-19T23:55:08.957Z,40.07
2019-05-19T23:57:37.711Z,37.50
